Time,TemperatureF,DewpointF,PressureIn,WindDirection,WindDirectionDegrees,WindSpeedMPH,WindSpeedGustMPH,Humidity,HourlyPrecipIn,Conditions,Clouds,dailyrainin,SoftwareType,DateUTC
2013-04-11 00:03:00,62.0,56.0,29.89,ENE,74,1.0,3.0,81,0.03,,,0.03,,2013-04-11 04:03:00,
2013-04-11 00:13:00,62.0,56.0,29.90,NNW,339,1.0,2.0,81,0.01,,,0.03,,2013-04-11 04:13:00,
2013-04-11 00:22:00,62.0,56.0,29.90,NNW,339,1.0,2.0,81,0.01,,,0.03,,2013-04-11 04:22:00,
2013-04-11 00:33:00,62.0,56.0,29.89,East,97,1.0,2.0,82,0.00,,,0.03,,2013-04-11 04:33:00,
2013-04-11 00:43:00,62.0,56.0,29.89,East,97,1.0,2.0,82,0.00,,,0.03,,2013-04-11 04:43:00,
2013-04-11 00:53:00,62.0,56.0,29.90,ENE,61,1.0,2.0,82,0.00,,,0.03,,2013-04-11 04:53:00,
2013-04-11 01:02:00,61.0,56.0,29.91,WNW,301,2.0,2.0,83,0.00,,,0.03,,2013-04-11 05:02:00,
2013-04-11 01:13:00,61.0,56.0,29.92,NNE,30,0.0,1.0,85,0.00,,,0.03,,2013-04-11 05:13:00,
2013-04-11 01:22:00,61.0,56.0,29.92,NNE,30,0.0,1.0,85,0.00,,,0.03,,2013-04-11 05:22:00,
2013-04-11 01:32:00,61.0,56.0,29.91,East,100,1.0,2.0,85,0.00,,,0.03,,2013-04-11 05:32:00,
2013-04-11 01:42:00,61.0,56.0,29.91,East,100,1.0,2.0,85,0.00,,,0.03,,2013-04-11 05:42:00,
2013-04-11 01:52:00,59.0,54.0,29.89,SSE,159,1.0,1.0,85,0.00,,,0.03,,2013-04-11 05:52:00,
2013-04-11 02:02:00,59.0,56.0,29.88,SSE,163,1.0,2.0,89,0.00,,,0.03,,2013-04-11 06:02:00,
2013-04-11 02:12:00,59.0,56.0,29.88,SSE,163,1.0,2.0,89,0.00,,,0.03,,2013-04-11 06:12:00,
2013-04-11 02:22:00,58.0,54.0,29.85,SSE,153,1.0,1.0,88,0.00,,,0.03,,2013-04-11 06:22:00,
2013-04-11 02:32:00,58.0,55.0,29.84,SSE,165,2.0,2.0,90,0.00,,,0.03,,2013-04-11 06:32:00,
2013-04-11 02:42:00,58.0,55.0,29.84,SSE,165,2.0,2.0,90,0.00,,,0.03,,2013-04-11 06:42:00,
2013-04-11 02:52:00,59.0,56.0,29.83,SE,146,2.0,2.0,90,0.00,,,0.03,,2013-04-11 06:52:00,
2013-04-11 03:02:00,59.0,56.0,29.83,SSE,154,1.0,3.0,89,0.00,,,0.03,,2013-04-11 07:02:00,
2013-04-11 03:12:00,59.0,56.0,29.83,SSE,154,1.0,3.0,89,0.00,,,0.03,,2013-04-11 07:12:00,
2013-04-11 03:22:00,59.0,55.0,29.82,SSE,150,2.0,2.0,88,0.00,,,0.03,,2013-04-11 07:22:00,
2013-04-11 03:32:00,59.0,55.0,29.83,South,175,2.0,2.0,87,0.00,,,0.03,,2013-04-11 07:32:00,
2013-04-11 03:42:00,59.0,55.0,29.83,South,175,2.0,2.0,87,0.00,,,0.03,,2013-04-11 07:42:00,
2013-04-11 03:52:00,60.0,56.0,29.83,SSE,157,1.0,1.0,87,0.00,,,0.03,,2013-04-11 07:52:00,
2013-04-11 04:03:00,60.0,56.0,29.84,South,170,1.0,2.0,87,0.00,,,0.03,,2013-04-11 08:03:00,
2013-04-11 04:12:00,60.0,56.0,29.84,South,170,1.0,2.0,87,0.00,,,0.03,,2013-04-11 08:12:00,
2013-04-11 04:22:00,60.0,56.0,29.84,SSE,162,2.0,3.0,87,0.00,,,0.03,,2013-04-11 08:22:00,
2013-04-11 04:32:00,59.0,55.0,29.85,SSE,166,0.0,1.0,87,0.00,,,0.03,,2013-04-11 08:32:00,
2013-04-11 04:42:00,59.0,55.0,29.85,SSE,166,0.0,1.0,87,0.00,,,0.03,,2013-04-11 08:42:00,
2013-04-11 04:52:00,59.0,55.0,29.85,WNW,290,0.0,1.0,88,0.00,,,0.03,,2013-04-11 08:52:00,
2013-04-11 05:02:00,59.0,55.0,29.86,NW,325,1.0,1.0,88,0.00,,,0.03,,2013-04-11 09:02:00,
2013-04-11 05:12:00,58.0,54.0,29.86,NNW,348,1.0,1.0,88,0.00,,,0.03,,2013-04-11 09:12:00,
2013-04-11 05:22:00,58.0,54.0,29.86,NNW,348,1.0,1.0,88,0.00,,,0.03,,2013-04-11 09:22:00,
2013-04-11 05:33:00,58.0,55.0,29.86,North,0,0.0,0.0,89,0.00,,,0.03,,2013-04-11 09:33:00,
2013-04-11 05:43:00,58.0,55.0,29.86,North,0,0.0,0.0,89,0.00,,,0.03,,2013-04-11 09:43:00,
2013-04-11 05:52:00,57.0,54.0,29.87,NNE,25,0.0,1.0,89,0.00,,,0.03,,2013-04-11 09:52:00,
2013-04-11 06:02:00,56.0,53.0,29.87,North,1,0.0,1.0,90,0.00,,,0.03,,2013-04-11 10:02:00,
2013-04-11 06:12:00,56.0,53.0,29.87,ENE,74,0.0,0.0,90,0.00,,,0.03,,2013-04-11 10:12:00,
2013-04-11 06:23:00,56.0,53.0,29.87,ENE,74,0.0,0.0,90,0.00,,,0.03,,2013-04-11 10:23:00,
2013-04-11 06:32:00,55.0,52.0,29.88,North,4,0.0,0.0,90,0.00,,,0.03,,2013-04-11 10:32:00,
2013-04-11 06:42:00,55.0,52.0,29.88,North,4,0.0,0.0,90,0.00,,,0.03,,2013-04-11 10:42:00,
2013-04-11 06:52:00,55.0,52.0,29.89,East,79,0.0,1.0,91,0.00,,,0.03,,2013-04-11 10:52:00,
2013-04-11 07:03:00,55.0,52.0,29.89,East,79,0.0,1.0,91,0.00,,,0.03,,2013-04-11 11:03:00,
2013-04-11 07:12:00,55.0,52.0,29.88,ENE,65,0.0,0.0,91,0.00,,,0.03,,2013-04-11 11:12:00,
2013-04-11 07:23:00,53.0,50.0,29.88,SE,146,1.0,1.0,90,0.00,,,0.03,,2013-04-11 11:23:00,
2013-04-11 07:32:00,56.0,54.0,29.88,South,174,0.0,0.0,92,0.00,,,0.03,,2013-04-11 11:32:00,
2013-04-11 07:43:00,57.0,54.0,29.89,ENE,61,0.0,0.0,91,0.00,,,0.03,,2013-04-11 11:43:00,
2013-04-11 07:52:00,57.0,54.0,29.89,ENE,61,0.0,0.0,91,0.00,,,0.03,,2013-04-11 11:52:00,
2013-04-11 08:02:00,59.0,56.0,29.89,SE,134,0.0,0.0,91,0.00,,,0.03,,2013-04-11 12:02:00,
2013-04-11 08:12:00,60.0,57.0,29.89,NE,37,0.0,0.0,91,0.00,,,0.03,,2013-04-11 12:12:00,
2013-04-11 08:22:00,60.0,57.0,29.89,NE,37,0.0,0.0,91,0.00,,,0.03,,2013-04-11 12:22:00,
2013-04-11 08:32:00,63.0,59.0,29.89,SSE,153,0.0,1.0,87,0.00,,,0.03,,2013-04-11 12:32:00,
2013-04-11 08:42:00,63.0,59.0,29.89,SSE,153,0.0,1.0,87,0.00,,,0.03,,2013-04-11 12:42:00,
2013-04-11 08:52:00,66.0,59.0,29.90,SE,140,0.0,1.0,77,0.00,,,0.03,,2013-04-11 12:52:00,
2013-04-11 09:02:00,68.0,58.0,29.89,SE,139,1.0,1.0,70,0.00,,,0.03,,2013-04-11 13:02:00,
2013-04-11 09:13:00,68.0,57.0,29.89,SSE,149,1.0,3.0,68,0.00,,,0.03,,2013-04-11 13:13:00,
2013-04-11 09:23:00,68.0,57.0,29.89,SSE,149,1.0,3.0,68,0.00,,,0.03,,2013-04-11 13:23:00,
2013-04-11 09:32:00,68.0,57.0,29.90,SSW,203,3.0,4.0,68,0.00,,,0.03,,2013-04-11 13:32:00,
2013-04-11 09:43:00,68.0,57.0,29.90,SSW,203,3.0,4.0,68,0.00,,,0.03,,2013-04-11 13:43:00,
2013-04-11 09:54:00,68.0,57.0,29.90,SSW,203,3.0,4.0,68,0.00,,,0.03,,2013-04-11 13:54:00,
2013-04-11 10:02:00,68.0,57.0,29.90,SSE,162,1.0,3.0,67,0.00,,,0.03,,2013-04-11 14:02:00,
2013-04-11 10:12:00,70.0,57.0,29.90,SW,216,1.0,3.0,63,0.00,,,0.03,,2013-04-11 14:12:00,
2013-04-11 10:22:00,70.0,57.0,29.90,SW,216,1.0,3.0,63,0.00,,,0.03,,2013-04-11 14:22:00,
2013-04-11 10:33:00,72.0,57.0,29.90,NE,46,1.0,3.0,60,0.00,,,0.03,,2013-04-11 14:33:00,
2013-04-11 10:42:00,72.0,57.0,29.90,NE,46,1.0,3.0,60,0.00,,,0.03,,2013-04-11 14:42:00,
2013-04-11 10:52:00,72.0,57.0,29.90,NE,46,1.0,3.0,60,0.00,,,0.03,,2013-04-11 14:52:00,
2013-04-11 11:02:00,73.0,54.0,29.91,East,98,3.0,6.0,52,0.00,,,0.03,,2013-04-11 15:02:00,
2013-04-11 11:12:00,74.0,55.0,29.91,NE,48,2.0,4.0,52,0.00,,,0.03,,2013-04-11 15:12:00,
2013-04-11 11:22:00,74.0,55.0,29.91,NE,48,2.0,4.0,52,0.00,,,0.03,,2013-04-11 15:22:00,
2013-04-11 11:32:00,74.0,55.0,29.91,NE,48,2.0,4.0,52,0.00,,,0.03,,2013-04-11 15:32:00,
2013-04-11 11:43:00,75.0,54.0,29.90,SE,143,3.0,5.0,48,0.00,,,0.03,,2013-04-11 15:43:00,
2013-04-11 11:52:00,75.0,54.0,29.90,SE,143,3.0,5.0,48,0.00,,,0.03,,2013-04-11 15:52:00,
2013-04-11 12:02:00,75.0,55.0,29.90,WSW,248,3.0,5.0,49,0.00,,,0.03,,2013-04-11 16:02:00,
2013-04-11 12:13:00,75.0,55.0,29.90,WSW,248,3.0,5.0,49,0.00,,,0.03,,2013-04-11 16:13:00,
2013-04-11 12:23:00,76.0,55.0,29.89,South,180,4.0,6.0,48,0.00,,,0.03,,2013-04-11 16:23:00,
2013-04-11 12:32:00,77.0,54.0,29.88,South,182,5.0,8.0,45,0.00,,,0.03,,2013-04-11 16:32:00,
2013-04-11 12:42:00,77.0,53.0,29.88,SW,231,4.0,6.0,44,0.00,,,0.03,,2013-04-11 16:42:00,
2013-04-11 12:52:00,77.0,53.0,29.88,SW,231,4.0,6.0,44,0.00,,,0.03,,2013-04-11 16:52:00,
2013-04-11 13:02:00,78.0,54.0,29.88,SSW,204,3.0,5.0,43,0.00,,,0.03,,2013-04-11 17:02:00,
2013-04-11 13:13:00,78.0,54.0,29.88,SSW,204,3.0,5.0,43,0.00,,,0.03,,2013-04-11 17:13:00,
2013-04-11 13:23:00,77.0,53.0,29.88,SW,219,5.0,6.0,43,0.00,,,0.03,,2013-04-11 17:23:00,
2013-04-11 13:33:00,79.0,52.0,29.86,South,187,5.0,7.0,39,0.00,,,0.03,,2013-04-11 17:33:00,
2013-04-11 13:43:00,79.0,52.0,29.86,South,187,5.0,7.0,39,0.00,,,0.03,,2013-04-11 17:43:00,
2013-04-11 13:52:00,79.0,52.0,29.85,South,183,3.0,6.0,39,0.00,,,0.03,,2013-04-11 17:52:00,
2013-04-11 14:03:00,80.0,51.0,29.85,South,190,5.0,6.0,37,0.00,,,0.03,,2013-04-11 18:03:00,
2013-04-11 14:13:00,80.0,51.0,29.85,South,190,5.0,6.0,37,0.00,,,0.03,,2013-04-11 18:13:00,
2013-04-11 14:23:00,80.0,51.0,29.84,SSE,161,4.0,6.0,37,0.00,,,0.03,,2013-04-11 18:23:00,
2013-04-11 14:33:00,80.0,51.0,29.83,South,187,5.0,6.0,37,0.00,,,0.03,,2013-04-11 18:33:00,
2013-04-11 14:42:00,80.0,51.0,29.83,South,187,5.0,6.0,37,0.00,,,0.03,,2013-04-11 18:42:00,
2013-04-11 14:53:00,81.0,52.0,29.83,ESE,119,4.0,10.0,37,0.00,,,0.03,,2013-04-11 18:53:00,
2013-04-11 15:03:00,81.0,54.0,29.82,SE,127,4.0,5.0,39,0.00,,,0.03,,2013-04-11 19:03:00,
2013-04-11 15:14:00,81.0,54.0,29.82,SE,127,4.0,5.0,39,0.00,,,0.03,,2013-04-11 19:14:00,
2013-04-11 15:22:00,80.0,54.0,29.82,SSE,149,6.0,7.0,41,0.00,,,0.03,,2013-04-11 19:22:00,
2013-04-11 15:32:00,80.0,54.0,29.81,East,99,7.0,11.0,41,0.00,,,0.03,,2013-04-11 19:32:00,
2013-04-11 15:43:00,80.0,54.0,29.81,East,99,7.0,11.0,41,0.00,,,0.03,,2013-04-11 19:43:00,
2013-04-11 15:53:00,79.0,53.0,29.81,ESE,116,8.0,10.0,41,0.00,,,0.03,,2013-04-11 19:53:00,
2013-04-11 16:02:00,78.0,54.0,29.81,SE,127,5.0,7.0,44,0.00,,,0.03,,2013-04-11 20:02:00,
2013-04-11 16:13:00,78.0,54.0,29.81,SE,127,5.0,7.0,44,0.00,,,0.03,,2013-04-11 20:13:00,
2013-04-11 16:22:00,78.0,54.0,29.81,SE,127,5.0,7.0,44,0.00,,,0.03,,2013-04-11 20:22:00,
2013-04-11 16:33:00,73.0,58.0,29.83,ESE,113,7.0,10.0,59,0.00,,,0.03,,2013-04-11 20:33:00,
2013-04-11 16:42:00,73.0,58.0,29.83,ESE,113,7.0,10.0,59,0.00,,,0.03,,2013-04-11 20:42:00,
2013-04-11 16:53:00,72.0,58.0,29.83,East,92,8.0,11.0,61,0.00,,,0.03,,2013-04-11 20:53:00,
2013-04-11 17:03:00,71.0,57.0,29.84,ESE,117,9.0,13.0,62,0.00,,,0.03,,2013-04-11 21:03:00,
2013-04-11 17:12:00,71.0,57.0,29.84,ESE,117,9.0,13.0,62,0.00,,,0.03,,2013-04-11 21:12:00,
2013-04-11 17:22:00,71.0,57.0,29.84,ESE,112,10.0,14.0,61,0.00,,,0.03,,2013-04-11 21:22:00,
2013-04-11 17:33:00,69.0,55.0,29.84,ESE,111,10.0,15.0,61,0.00,,,0.03,,2013-04-11 21:33:00,
2013-04-11 17:42:00,69.0,55.0,29.84,ESE,111,10.0,15.0,61,0.00,,,0.03,,2013-04-11 21:42:00,
2013-04-11 17:54:00,69.0,55.0,29.85,ESE,106,10.0,13.0,60,0.00,,,0.03,,2013-04-11 21:54:00,
2013-04-11 18:03:00,68.0,54.0,29.85,East,99,9.0,15.0,61,0.00,,,0.03,,2013-04-11 22:03:00,
2013-04-11 18:13:00,68.0,54.0,29.85,East,99,9.0,15.0,61,0.00,,,0.03,,2013-04-11 22:13:00,
2013-04-11 18:23:00,65.0,53.0,29.86,East,92,8.0,11.0,64,0.00,,,0.03,,2013-04-11 22:23:00,
2013-04-11 18:33:00,63.0,51.0,29.86,East,96,10.0,13.0,66,0.00,,,0.03,,2013-04-11 22:33:00,
2013-04-11 18:44:00,63.0,51.0,29.86,East,96,10.0,13.0,66,0.00,,,0.03,,2013-04-11 22:44:00,
2013-04-11 18:53:00,62.0,51.0,29.88,East,98,10.0,13.0,68,0.00,,,0.03,,2013-04-11 22:53:00,
2013-04-11 19:03:00,61.0,50.0,29.88,East,101,11.0,16.0,68,0.00,,,0.03,,2013-04-11 23:03:00,
2013-04-11 19:13:00,61.0,50.0,29.88,East,101,11.0,16.0,68,0.00,,,0.03,,2013-04-11 23:13:00,
2013-04-11 19:23:00,60.0,50.0,29.88,ESE,118,8.0,11.0,69,0.00,,,0.03,,2013-04-11 23:23:00,
2013-04-11 19:32:00,60.0,50.0,29.88,ESE,118,8.0,11.0,69,0.00,,,0.03,,2013-04-11 23:32:00,
2013-04-11 19:42:00,60.0,50.0,29.88,ESE,118,8.0,11.0,69,0.00,,,0.03,,2013-04-11 23:42:00,
2013-04-11 19:53:00,57.0,49.0,29.88,ESE,114,6.0,9.0,74,0.00,,,0.03,,2013-04-11 23:53:00,
2013-04-11 20:02:00,54.0,47.0,29.86,SE,127,9.0,15.0,77,0.00,,,0.03,,2013-04-12 00:02:00,
2013-04-11 20:12:00,54.0,47.0,29.86,SE,127,9.0,15.0,77,0.00,,,0.03,,2013-04-12 00:12:00,
2013-04-11 20:22:00,53.0,46.0,29.86,ESE,109,9.0,14.0,77,0.00,,,0.03,,2013-04-12 00:22:00,
2013-04-11 20:32:00,53.0,46.0,29.86,ESE,104,6.0,13.0,77,0.00,,,0.03,,2013-04-12 00:32:00,
2013-04-11 20:42:00,53.0,46.0,29.86,ESE,104,6.0,13.0,77,0.00,,,0.03,,2013-04-12 00:42:00,
2013-04-11 20:53:00,53.0,46.0,29.86,ESE,104,6.0,13.0,77,0.00,,,0.03,,2013-04-12 00:53:00,
2013-04-11 21:02:00,52.0,44.0,29.88,ESE,107,7.0,11.0,75,0.00,,,0.03,,2013-04-12 01:02:00,
2013-04-11 21:12:00,52.0,44.0,29.88,ESE,107,7.0,11.0,75,0.00,,,0.03,,2013-04-12 01:12:00,
2013-04-11 21:22:00,52.0,44.0,29.88,East,96,7.0,10.0,74,0.00,,,0.03,,2013-04-12 01:22:00,
2013-04-11 21:32:00,52.0,44.0,29.88,ESE,105,8.0,11.0,75,0.00,,,0.03,,2013-04-12 01:32:00,
2013-04-11 21:42:00,52.0,44.0,29.88,ESE,105,8.0,11.0,75,0.00,,,0.03,,2013-04-12 01:42:00,
2013-04-11 21:52:00,52.0,45.0,29.88,ESE,104,9.0,14.0,76,0.00,,,0.03,,2013-04-12 01:52:00,
2013-04-11 22:03:00,52.0,45.0,29.88,East,90,9.0,12.0,77,0.00,,,0.03,,2013-04-12 02:03:00,
2013-04-11 22:12:00,52.0,45.0,29.88,East,90,9.0,12.0,77,0.00,,,0.03,,2013-04-12 02:12:00,
2013-04-11 22:22:00,52.0,45.0,29.88,East,90,9.0,12.0,77,0.00,,,0.03,,2013-04-12 02:22:00,
2013-04-11 22:32:00,52.0,45.0,29.89,East,101,8.0,12.0,78,0.00,,,0.03,,2013-04-12 02:32:00,
2013-04-11 22:42:00,52.0,45.0,29.89,East,101,8.0,12.0,78,0.00,,,0.03,,2013-04-12 02:42:00,
2013-04-11 22:52:00,52.0,46.0,29.88,East,98,7.0,11.0,79,0.00,,,0.03,,2013-04-12 02:52:00,
2013-04-11 23:02:00,52.0,46.0,29.88,East,95,4.0,6.0,80,0.00,,,0.03,,2013-04-12 03:02:00,
2013-04-11 23:12:00,52.0,46.0,29.88,East,95,4.0,6.0,80,0.00,,,0.03,,2013-04-12 03:12:00,
2013-04-11 23:22:00,52.0,46.0,29.88,East,95,4.0,6.0,80,0.00,,,0.03,,2013-04-12 03:22:00,
2013-04-11 23:33:00,51.0,46.0,29.88,East,96,8.0,12.0,83,0.00,,,0.00,,2013-04-12 03:33:00,
2013-04-11 23:43:00,51.0,46.0,29.88,East,96,8.0,12.0,83,0.00,,,0.00,,2013-04-12 03:43:00,
2013-04-11 23:53:00,51.0,46.0,29.88,East,96,8.0,12.0,83,0.00,,,0.00,,2013-04-12 03:53:00,